createdAt,value
2023-05-15T00:02:43.465Z,9.79
2023-05-15T00:05:46.131Z,9.79
2023-05-15T00:08:48.316Z,9.69
2023-05-15T00:11:50.614Z,9.77
2023-05-15T00:14:52.808Z,9.76
2023-05-15T00:17:55.180Z,9.75
2023-05-15T00:20:57.507Z,9.75
2023-05-15T00:23:59.890Z,7.34
2023-05-15T00:27:02.838Z,6.95
2023-05-15T00:30:07.997Z,6.75
2023-05-15T00:33:10.715Z,6.09
2023-05-15T00:36:13.522Z,6.31
2023-05-15T00:39:18.865Z,6.59
2023-05-15T00:42:25.060Z,6.52
2023-05-15T00:45:29.179Z,6.42
2023-05-15T00:48:33.621Z,6.29
2023-05-15T00:51:37.128Z,6.66
2023-05-15T00:54:40.244Z,6.62
2023-05-15T00:57:45.325Z,7.79
2023-05-15T01:00:50.408Z,6.41
2023-05-15T01:03:53.333Z,6.41
2023-05-15T01:06:57.818Z,7.35
2023-05-15T01:10:04.992Z,5.78
2023-05-15T01:13:12.608Z,6.59
2023-05-15T01:16:15.459Z,6.24
2023-05-15T01:19:18.830Z,6.25
2023-05-15T01:22:50.909Z,6.79
2023-05-15T01:26:20.693Z,7.92
2023-05-15T01:29:53.519Z,6.78
2023-05-15T01:33:05.858Z,6.20
2023-05-15T01:36:22.356Z,7.53
2023-05-15T01:39:33.358Z,8.10
2023-05-15T01:42:43.301Z,6.33
2023-05-15T01:45:46.490Z,6.47
2023-05-15T01:48:52.860Z,6.84
2023-05-15T01:52:18.327Z,6.46
2023-05-15T01:55:24.509Z,9.13
2023-05-15T01:58:29.132Z,6.60
2023-05-15T02:01:34.310Z,6.37
2023-05-15T02:04:38.772Z,6.40
2023-05-15T02:07:48.832Z,6.51
2023-05-15T02:10:52.754Z,5.98
2023-05-15T02:13:57.770Z,6.67
2023-05-15T02:17:00.585Z,6.53
2023-05-15T02:20:05.873Z,6.48
2023-05-15T02:23:08.976Z,8.90
2023-05-15T02:26:37.125Z,7.72
2023-05-15T02:29:48.778Z,9.57
2023-05-15T02:33:14.287Z,9.56
2023-05-15T02:36:24.649Z,6.18
2023-05-15T02:39:28.498Z,6.39
2023-05-15T02:42:32.412Z,6.26
2023-05-15T02:45:37.116Z,6.53
2023-05-15T02:48:42.741Z,5.54
2023-05-15T02:51:45.457Z,6.23
2023-05-15T02:54:48.968Z,9.47
2023-05-15T02:57:51.542Z,6.38
2023-05-15T03:00:54.478Z,8.48
2023-05-15T03:03:57.271Z,6.37
2023-05-15T03:06:59.942Z,6.07
2023-05-15T03:10:02.740Z,9.45
2023-05-15T03:13:05.745Z,8.20
2023-05-15T03:16:10.037Z,6.47
2023-05-15T03:19:12.808Z,6.49
2023-05-15T03:22:15.674Z,8.81
2023-05-15T03:25:18.908Z,6.34
2023-05-15T03:28:21.667Z,6.86
2023-05-15T03:31:24.622Z,6.41
2023-05-15T03:34:27.560Z,6.26
2023-05-15T03:37:30.263Z,6.31
2023-05-15T03:40:33.915Z,8.29
2023-05-15T03:43:39.023Z,6.31
2023-05-15T03:46:41.877Z,6.30
2023-05-15T03:49:47.010Z,7.15
2023-05-15T03:52:49.650Z,9.47
2023-05-15T03:55:52.231Z,6.49
2023-05-15T03:58:54.904Z,7.98
2023-05-15T04:02:04.731Z,6.30
2023-05-15T04:05:09.316Z,6.44
2023-05-15T04:11:32.044Z,7.25
2023-05-15T04:14:35.346Z,6.76
2023-05-15T04:17:39.283Z,5.66
2023-05-15T04:20:42.293Z,7.68
2023-05-15T04:23:44.855Z,6.39
2023-05-15T04:26:47.355Z,6.08
2023-05-15T04:29:50.131Z,6.96
2023-05-15T04:32:53.193Z,7.46
2023-05-15T04:35:55.608Z,8.01
2023-05-15T04:38:58.234Z,7.69
2023-05-15T04:42:00.984Z,8.73
2023-05-15T04:45:04.231Z,9.15
2023-05-15T04:48:12.136Z,7.61
2023-05-15T04:51:17.140Z,6.10
2023-05-15T04:54:19.911Z,6.21
2023-05-15T04:57:24.963Z,6.79
2023-05-15T05:00:29.659Z,6.59
2023-05-15T05:03:32.211Z,8.08
2023-05-15T05:06:34.689Z,8.25
2023-05-15T05:09:39.368Z,5.63
2023-05-15T05:12:41.750Z,8.76
2023-05-15T05:15:44.368Z,6.29
2023-05-15T05:18:47.179Z,8.12
2023-05-15T05:21:50.030Z,8.34
2023-05-15T05:24:52.412Z,7.05
2023-05-15T05:27:55.053Z,6.91
2023-05-15T05:30:57.400Z,6.38
2023-05-15T05:34:00.172Z,8.72
2023-05-15T05:37:02.676Z,6.43
2023-05-15T05:40:06.928Z,6.01
2023-05-15T05:43:09.413Z,8.45
2023-05-15T05:46:12.102Z,7.80
2023-05-15T05:49:17.524Z,7.12
2023-05-15T05:52:20.131Z,8.09
2023-05-15T05:55:22.929Z,7.01
2023-05-15T05:58:26.417Z,6.17
2023-05-15T06:01:29.757Z,6.88
2023-05-15T06:04:36.407Z,6.44
2023-05-15T06:07:39.232Z,7.35
2023-05-15T06:10:42.647Z,7.40
2023-05-15T06:13:45.072Z,8.65
2023-05-15T06:16:47.754Z,9.15
2023-05-15T06:19:51.231Z,6.66
2023-05-15T06:22:53.689Z,6.80
2023-05-15T06:25:56.755Z,6.96
2023-05-15T06:28:59.210Z,6.52
2023-05-15T06:32:01.907Z,8.06
2023-05-15T06:35:04.575Z,7.38
2023-05-15T06:38:07.384Z,7.65
2023-05-15T06:41:09.693Z,8.43
2023-05-15T06:44:12.011Z,8.12
2023-05-15T06:47:14.952Z,9.68
2023-05-15T06:50:17.247Z,10.15
2023-05-15T06:53:21.314Z,9.55
2023-05-15T06:56:23.719Z,7.87
2023-05-15T06:59:26.357Z,8.07
2023-05-15T07:02:28.612Z,8.62
2023-05-15T07:05:31.067Z,9.09
2023-05-15T07:08:33.338Z,8.30
2023-05-15T07:11:38.010Z,10.40
2023-05-15T07:14:40.339Z,9.97
2023-05-15T07:17:42.583Z,8.87
2023-05-15T07:20:45.140Z,8.60
2023-05-15T07:23:47.501Z,9.46
2023-05-15T07:26:58.061Z,8.51
2023-05-15T07:30:05.936Z,10.58
2023-05-15T07:33:08.531Z,9.00
2023-05-15T07:36:10.907Z,10.05
2023-05-15T07:39:13.623Z,9.65
2023-05-15T07:42:16.051Z,9.66
2023-05-15T07:45:18.452Z,10.55
2023-05-15T07:48:20.953Z,11.50
2023-05-15T07:51:23.831Z,9.73
2023-05-15T07:54:27.174Z,11.53
2023-05-15T07:57:29.660Z,9.64
2023-05-15T08:00:31.957Z,11.15
2023-05-15T08:03:34.258Z,8.96
2023-05-15T08:06:39.837Z,9.78
2023-05-15T08:09:43.779Z,9.95
2023-05-15T08:12:47.359Z,9.93
2023-05-15T08:15:49.663Z,10.71
2023-05-15T08:19:00.260Z,9.57
2023-05-15T08:22:02.710Z,9.84
2023-05-15T08:25:07.606Z,9.82
2023-05-15T08:28:11.440Z,10.36
2023-05-15T08:31:13.733Z,10.09
2023-05-15T08:34:15.916Z,9.09
2023-05-15T08:37:18.267Z,11.86
2023-05-15T08:40:25.700Z,9.23
2023-05-15T08:43:39.977Z,11.80
2023-05-15T08:46:42.761Z,11.08
2023-05-15T08:50:18.065Z,11.24
2023-05-15T08:53:21.142Z,12.30
2023-05-15T08:56:23.714Z,12.48
2023-05-15T08:59:26.867Z,12.07
2023-05-15T09:02:29.467Z,11.59
2023-05-15T09:05:32.512Z,11.82
2023-05-15T09:08:36.852Z,9.93
2023-05-15T09:11:46.359Z,11.09
2023-05-15T09:14:49.084Z,13.14
2023-05-15T09:17:52.933Z,12.15
2023-05-15T09:20:56.350Z,12.63
2023-05-15T09:24:24.105Z,13.15
2023-05-15T09:27:27.420Z,10.23
2023-05-15T09:30:31.467Z,13.03
2023-05-15T09:33:35.795Z,12.48
2023-05-15T09:36:43.980Z,12.01
2023-05-15T09:39:46.645Z,11.38
2023-05-15T09:42:54.450Z,11.98
2023-05-15T09:45:57.112Z,11.72
2023-05-15T09:49:00.070Z,11.15
2023-05-15T09:52:02.832Z,12.46
2023-05-15T09:55:06.574Z,10.72
2023-05-15T09:58:11.540Z,12.63
2023-05-15T10:01:13.850Z,11.27
2023-05-15T10:04:16.973Z,12.74
2023-05-15T10:07:28.505Z,10.89
2023-05-15T10:10:31.357Z,12.30
2023-05-15T10:13:34.734Z,13.66
2023-05-15T10:16:38.810Z,12.56
2023-05-15T10:19:56.592Z,13.72
2023-05-15T10:23:02.347Z,12.09
2023-05-15T10:26:22.780Z,12.26
2023-05-15T10:29:27.535Z,12.94
2023-05-15T10:32:30.675Z,13.25
2023-05-15T10:35:35.086Z,12.63
2023-05-15T10:38:39.554Z,13.11
2023-05-15T10:41:43.407Z,12.36
2023-05-15T10:44:45.760Z,12.97
2023-05-15T10:47:48.596Z,14.52
2023-05-15T10:50:51.398Z,12.66
2023-05-15T10:53:55.209Z,13.31
2023-05-15T10:56:57.774Z,14.59
2023-05-15T11:00:01.574Z,14.32
2023-05-15T11:03:05.745Z,12.72
2023-05-15T11:06:12.684Z,12.83
2023-05-15T11:09:34.866Z,13.68
2023-05-15T11:12:56.219Z,13.06
2023-05-15T11:15:59.595Z,12.88
2023-05-15T11:19:02.285Z,13.61
2023-05-15T11:22:19.791Z,15.05
2023-05-15T11:25:30.846Z,15.12
2023-05-15T11:28:42.739Z,14.40
2023-05-15T11:31:45.386Z,12.14
2023-05-15T11:34:53.111Z,12.46
2023-05-15T11:38:02.949Z,13.73
2023-05-15T11:41:18.175Z,15.23
2023-05-15T11:44:24.999Z,14.95
2023-05-15T11:47:30.191Z,13.07
2023-05-15T11:50:34.440Z,14.68
2023-05-15T11:53:39.526Z,12.32
2023-05-15T11:56:45.668Z,12.77
2023-05-15T11:59:48.490Z,12.81
2023-05-15T12:02:51.196Z,12.25
2023-05-15T12:05:59.494Z,13.05
2023-05-15T12:09:02.494Z,12.95
2023-05-15T12:12:07.272Z,11.93
2023-05-15T12:15:14.401Z,14.47
2023-05-15T12:18:16.955Z,14.89
2023-05-15T12:21:19.575Z,15.57
2023-05-15T12:24:23.370Z,14.75
2023-05-15T12:27:27.057Z,13.61
2023-05-15T12:30:31.945Z,13.40
2023-05-15T12:33:34.422Z,14.38
2023-05-15T12:36:52.800Z,15.10
2023-05-15T12:40:01.686Z,13.98
2023-05-15T12:43:08.219Z,13.30
2023-05-15T12:46:15.336Z,13.92
2023-05-15T12:49:23.013Z,13.91
2023-05-15T12:52:29.616Z,15.32
2023-05-15T12:55:35.279Z,15.40
2023-05-15T12:58:38.889Z,12.63
2023-05-15T13:01:44.946Z,12.46
2023-05-15T13:04:48.955Z,14.18
2023-05-15T13:07:52.920Z,15.09
2023-05-15T13:11:00.086Z,12.98
2023-05-15T13:14:11.106Z,13.11
2023-05-15T13:17:15.550Z,14.15
2023-05-15T13:20:17.973Z,14.84
2023-05-15T13:23:21.356Z,15.05
2023-05-15T13:26:23.694Z,14.19
2023-05-15T13:29:25.954Z,14.07
2023-05-15T13:32:28.269Z,13.56
2023-05-15T13:35:31.838Z,14.27
2023-05-15T13:38:34.073Z,13.36
2023-05-15T13:41:37.904Z,14.82
2023-05-15T13:44:40.732Z,14.24
2023-05-15T13:47:44.282Z,15.07
2023-05-15T13:50:46.793Z,13.01
2023-05-15T13:53:49.158Z,14.41
2023-05-15T13:56:51.543Z,14.94
2023-05-15T13:59:54.254Z,15.48
2023-05-15T14:02:56.551Z,14.77
2023-05-15T14:05:59.111Z,15.62
2023-05-15T14:09:01.823Z,15.13
2023-05-15T14:12:04.664Z,13.82
2023-05-15T14:15:07.491Z,13.77
2023-05-15T14:18:10.515Z,12.82
2023-05-15T14:21:12.814Z,13.68
2023-05-15T14:24:15.070Z,13.94
2023-05-15T14:27:19.914Z,14.09
2023-05-15T14:30:23.458Z,15.75
2023-05-15T14:33:26.900Z,15.19
2023-05-15T14:36:29.290Z,14.32
2023-05-15T14:39:32.440Z,13.82
2023-05-15T14:42:34.880Z,12.76
2023-05-15T14:45:37.701Z,14.31
2023-05-15T14:48:40.118Z,13.91
2023-05-15T14:51:42.755Z,15.09
2023-05-15T14:54:49.239Z,14.26
2023-05-15T14:57:59.835Z,13.81
2023-05-15T15:01:03.426Z,13.64
2023-05-15T15:04:06.467Z,14.05
2023-05-15T15:07:23.110Z,15.66
2023-05-15T15:10:26.055Z,15.41
2023-05-15T15:13:30.113Z,15.23
2023-05-15T15:16:33.520Z,14.99
2023-05-15T15:19:35.731Z,14.88
2023-05-15T15:22:39.022Z,14.77
2023-05-15T15:25:41.640Z,14.78
2023-05-15T15:28:43.851Z,14.84
2023-05-15T15:31:46.017Z,14.86
2023-05-15T15:34:48.449Z,14.82
2023-05-15T15:37:50.657Z,14.65
2023-05-15T15:40:52.878Z,14.66
2023-05-15T15:43:54.996Z,14.61
2023-05-15T15:46:57.080Z,14.57
2023-05-15T15:49:59.998Z,14.51
2023-05-15T15:53:02.210Z,14.51
2023-05-15T15:56:04.461Z,14.39
2023-05-15T15:59:06.766Z,14.60
2023-05-15T16:02:09.599Z,14.46
2023-05-15T16:05:12.103Z,14.58
2023-05-15T16:08:14.250Z,14.39
2023-05-15T16:11:16.767Z,14.24
2023-05-15T16:14:19.579Z,14.28
2023-05-15T16:17:22.299Z,14.23
2023-05-15T16:20:24.853Z,14.14
2023-05-15T16:23:27.324Z,14.13
2023-05-15T16:26:30.557Z,14.18
2023-05-15T16:29:32.834Z,14.13
2023-05-15T16:32:35.404Z,14.18
2023-05-15T16:35:37.776Z,14.21
2023-05-15T16:38:39.933Z,14.23
2023-05-15T16:41:42.458Z,14.13
2023-05-15T16:44:44.635Z,14.09
2023-05-15T16:47:46.868Z,14.07
2023-05-15T16:50:49.158Z,14.09
2023-05-15T16:53:52.731Z,13.92
2023-05-15T16:56:54.836Z,13.82
2023-05-15T16:59:56.998Z,13.87
2023-05-15T17:02:59.335Z,13.82
2023-05-15T17:06:01.747Z,13.77
2023-05-15T17:09:04.284Z,13.71
2023-05-15T17:12:07.220Z,13.68
2023-05-15T17:15:10.084Z,13.58
2023-05-15T17:18:12.362Z,13.52
2023-05-15T17:21:14.716Z,13.48
2023-05-15T17:24:17.548Z,13.45
2023-05-15T17:27:20.743Z,13.37
2023-05-15T17:30:23.119Z,13.28
2023-05-15T17:33:25.293Z,13.21
2023-05-15T17:36:27.948Z,13.10
2023-05-15T17:39:30.312Z,13.03
2023-05-15T17:42:32.536Z,12.99
2023-05-15T17:45:34.632Z,12.93
2023-05-15T17:48:36.814Z,12.87
2023-05-15T17:51:39.171Z,12.72
2023-05-15T17:54:41.428Z,12.77
2023-05-15T17:57:43.463Z,12.71
2023-05-15T18:00:46.239Z,12.62
2023-05-15T18:03:49.181Z,12.50
2023-05-15T18:06:51.772Z,12.36
2023-05-15T18:09:54.046Z,12.26
2023-05-15T18:12:56.209Z,12.16
2023-05-15T18:15:58.338Z,12.07
2023-05-15T18:19:00.852Z,11.98
2023-05-15T18:22:03.543Z,11.87
2023-05-15T18:25:06.102Z,11.77
2023-05-15T18:28:08.413Z,11.67
2023-05-15T18:31:10.841Z,11.53
2023-05-15T18:34:13.002Z,11.40
2023-05-15T18:37:15.678Z,11.27
2023-05-15T18:40:18.058Z,11.18
2023-05-15T18:43:20.156Z,11.07
2023-05-15T18:46:22.430Z,10.98
2023-05-15T18:49:24.748Z,10.86
2023-05-15T18:52:27.509Z,10.76
2023-05-15T18:55:31.047Z,10.69
2023-05-15T18:58:33.096Z,10.56
2023-05-15T19:01:35.230Z,10.47
2023-05-15T19:04:37.376Z,10.38
2023-05-15T19:07:39.882Z,10.32
2023-05-15T19:10:47.510Z,10.24
2023-05-15T19:13:50.220Z,10.21
2023-05-15T19:16:52.842Z,10.13
2023-05-15T19:19:55.244Z,10.00
2023-05-15T19:22:57.422Z,9.94
2023-05-15T19:26:00.188Z,9.92
2023-05-15T19:29:02.476Z,9.78
2023-05-15T19:32:05.081Z,9.81
2023-05-15T19:35:07.591Z,9.72
2023-05-15T19:38:09.851Z,9.65
2023-05-15T19:41:13.891Z,9.63
2023-05-15T19:44:16.721Z,9.61
2023-05-15T19:47:18.839Z,9.59
2023-05-15T19:50:21.278Z,9.54
2023-05-15T19:53:24.087Z,9.46
2023-05-15T19:56:27.054Z,9.41
2023-05-15T19:59:29.812Z,9.40
2023-05-15T20:02:32.152Z,9.34
2023-05-15T20:05:34.510Z,9.28
2023-05-15T20:08:37.483Z,9.22
2023-05-15T20:11:39.905Z,9.18
2023-05-15T20:14:42.583Z,9.16
2023-05-15T20:17:45.710Z,9.16
2023-05-15T20:20:48.490Z,9.12
2023-05-15T20:23:51.395Z,9.08
2023-05-15T20:26:53.601Z,9.08
2023-05-15T20:29:55.794Z,8.98
2023-05-15T20:32:57.979Z,8.91
2023-05-15T20:36:00.395Z,8.88
2023-05-15T20:39:06.250Z,8.89
2023-05-15T20:42:08.560Z,8.88
2023-05-15T20:45:11.239Z,8.89
2023-05-15T20:48:14.316Z,8.86
2023-05-15T20:51:17.159Z,8.83
2023-05-15T20:54:19.818Z,8.82
2023-05-15T20:57:22.213Z,8.37
2023-05-15T21:00:24.721Z,6.47
2023-05-15T21:03:28.221Z,8.40
2023-05-15T21:06:31.303Z,8.76
2023-05-15T21:09:33.950Z,8.43
2023-05-15T21:12:36.356Z,8.40
2023-05-15T21:15:38.613Z,6.90
2023-05-15T21:18:42.308Z,6.93
2023-05-15T21:21:47.404Z,8.13
2023-05-15T21:24:49.761Z,6.69
2023-05-15T21:27:52.029Z,6.51
2023-05-15T21:30:54.433Z,7.02
2023-05-15T21:33:56.744Z,7.17
2023-05-15T21:36:58.990Z,8.56
2023-05-15T21:40:02.099Z,8.12
2023-05-15T21:43:04.423Z,8.23
2023-05-15T21:46:07.062Z,7.26
2023-05-15T21:49:09.388Z,7.46
2023-05-15T21:52:11.704Z,8.15
2023-05-15T21:55:14.468Z,6.77
2023-05-15T21:58:16.748Z,5.50
2023-05-15T22:01:19.176Z,6.94
2023-05-15T22:04:21.485Z,6.66
2023-05-15T22:07:24.188Z,6.50
2023-05-15T22:10:27.232Z,6.72
2023-05-15T22:13:30.436Z,7.97
2023-05-15T22:16:33.327Z,7.02
2023-05-15T22:19:35.581Z,7.99
2023-05-15T22:22:39.050Z,7.96
2023-05-15T22:25:42.796Z,7.75
2023-05-15T22:28:44.944Z,8.46
2023-05-15T22:31:47.180Z,8.21
2023-05-15T22:34:50.231Z,7.83
2023-05-15T22:37:52.490Z,7.83
2023-05-15T22:40:55.189Z,8.38
2023-05-15T22:43:57.464Z,7.88
2023-05-15T22:46:59.880Z,6.78
2023-05-15T22:50:02.363Z,8.04
2023-05-15T22:53:04.622Z,7.29
2023-05-15T22:56:07.257Z,6.53
2023-05-15T22:59:09.572Z,8.30
2023-05-15T23:02:11.922Z,8.48
2023-05-15T23:05:14.152Z,7.10
2023-05-15T23:08:16.324Z,7.55
2023-05-15T23:11:18.472Z,8.98
2023-05-15T23:14:22.042Z,9.10
2023-05-15T23:17:26.303Z,8.07
2023-05-15T23:20:30.035Z,8.52
2023-05-15T23:23:32.504Z,7.67
2023-05-15T23:26:35.499Z,7.63
2023-05-15T23:29:37.752Z,8.80
2023-05-15T23:32:39.950Z,9.85
2023-05-15T23:35:44.607Z,10.14
2023-05-15T23:38:47.332Z,9.47
2023-05-15T23:41:49.645Z,7.98
2023-05-15T23:44:51.985Z,8.54
2023-05-15T23:47:54.888Z,8.98
2023-05-15T23:50:57.586Z,8.86
2023-05-15T23:53:59.742Z,10.38
2023-05-15T23:57:02.982Z,9.38
